Time;durP1;ratioP1;P1;durP2;ratioP2;P2;SDS_P1;SDS_P2;PMS_P1;PMS_P2;Temp;Humidity;BMP_temperature;BMP_pressure;BME280_temperature;BME280_humidity;BME280_pressure;Samples;Min_cycle;Max_cycle;Signal;HPM_P1;HPM_P2
2022/01/10 00:00:07;;;;;;;0.10;0.10;;;;;;;;;;4986034;28;20042;-93
2022/01/10 00:02:33;;;;;;;0.00;0.00;;;;;;;;;;4987439;28;20483;-92
2022/01/10 00:04:59;;;;;;;0.20;0.20;;;;;;;;;;4988380;28;20117;-91
2022/01/10 00:07:25;;;;;;;0.75;0.57;;;;;;;;;;4987145;28;20369;-91
2022/01/10 00:09:51;;;;;;;0.20;0.20;;;;;;;;;;4984411;28;20030;-91
2022/01/10 00:12:17;;;;;;;0.30;0.20;;;;;;;;;;4992783;28;20061;-91
2022/01/10 00:14:44;;;;;;;0.10;0.10;;;;;;;;;;4987301;28;20038;-92
2022/01/10 00:17:10;;;;;;;0.10;0.10;;;;;;;;;;5005650;28;20167;-91
2022/01/10 00:19:36;;;;;;;0.00;0.00;;;;;;;;;;4987288;28;20440;-92
2022/01/10 00:22:02;;;;;;;0.10;0.10;;;;;;;;;;4985350;28;20148;-92
2022/01/10 00:24:28;;;;;;;0.00;0.00;;;;;;;;;;4987279;28;20031;-92
2022/01/10 00:26:54;;;;;;;0.00;0.00;;;;;;;;;;4986012;28;20038;-93
2022/01/10 00:29:20;;;;;;;0.10;0.10;;;;;;;;;;4985885;28;20043;-92
2022/01/10 00:31:46;;;;;;;0.00;0.00;;;;;;;;;;4988347;28;20029;-91
2022/01/10 00:34:12;;;;;;;0.10;0.10;;;;;;;;;;4990289;28;20038;-92
2022/01/10 00:36:38;;;;;;;0.10;0.10;;;;;;;;;;4990228;28;20031;-92
2022/01/10 00:39:04;;;;;;;0.57;0.57;;;;;;;;;;4986798;28;20035;-92
2022/01/10 00:41:30;;;;;;;0.73;0.73;;;;;;;;;;4989742;28;20026;-92
2022/01/10 00:43:57;;;;;;;0.10;0.10;;;;;;;;;;4992299;28;20046;-92
2022/01/10 00:46:23;;;;;;;;;;;;;;;;;;4983149;28;20034;-93
2022/01/10 00:48:50;;;;;;;0.00;0.00;;;;;;;;;;4991078;28;19914;-92
2022/01/10 00:51:16;;;;;;;0.10;0.10;;;;;;;;;;4987271;28;20035;-92
2022/01/10 00:53:44;;;;;;;0.17;0.17;;;;;;;;;;4987804;28;20435;-91
2022/01/10 00:56:10;;;;;;;0.52;0.20;;;;;;;;;;4984839;28;20070;-93
2022/01/10 00:58:36;;;;;;;0.40;0.40;;;;;;;;;;4991324;28;20526;-92
2022/01/10 01:01:05;;;;;;;0.13;0.13;;;;;;;;;;4990710;28;20032;-93
2022/01/10 01:03:31;;;;;;;0.00;0.00;;;;;;;;;;4991101;28;20041;-93
2022/01/10 01:05:58;;;;;;;0.03;0.03;;;;;;;;;;4990895;28;20093;-93
2022/01/10 01:08:26;;;;;;;0.10;0.10;;;;;;;;;;4990756;28;20030;-92
2022/01/10 01:16:19;;;;;;;0.30;0.20;;;;;;;;;;4970848;28;20062;-92
2022/01/10 01:24:04;;;;;;;0.10;0.10;;;;;;;;;;4968223;28;20125;-93
2022/01/10 01:26:32;;;;;;;0.00;0.00;;;;;;;;;;4969395;28;20030;-93
2022/01/10 01:28:58;;;;;;;0.08;0.08;;;;;;;;;;4967039;28;20027;-94
2022/01/10 01:31:24;;;;;;;2.20;0.30;;;;;;;;;;4968580;28;20074;-94
2022/01/10 01:33:50;;;;;;;0.20;0.20;;;;;;;;;;4952116;28;20071;-94
2022/01/10 01:36:22;;;;;;;0.20;0.20;;;;;;;;;;4966658;28;20023;-93
2022/01/10 01:38:48;;;;;;;0.10;0.10;;;;;;;;;;4967909;28;20042;-93
2022/01/10 01:43:43;;;;;;;0.10;0.10;;;;;;;;;;4968912;28;20047;-93
2022/01/10 01:46:09;;;;;;;;;;;;;;;;;;4970863;28;20031;-93
2022/01/10 01:48:35;;;;;;;0.10;0.10;;;;;;;;;;4968952;28;19914;-93
2022/01/10 01:51:02;;;;;;;0.10;0.10;;;;;;;;;;4973511;28;20117;-92
2022/01/10 01:53:30;;;;;;;0.00;0.00;;;;;;;;;;4986064;28;20037;-93
2022/01/10 01:55:56;;;;;;;0.45;0.40;;;;;;;;;;4989599;28;20121;-92
2022/01/10 01:58:22;;;;;;;0.37;0.33;;;;;;;;;;4989104;28;20052;-92
2022/01/10 02:00:48;;;;;;;0.40;0.25;;;;;;;;;;4984737;28;20212;-91
2022/01/10 02:03:14;;;;;;;0.10;0.10;;;;;;;;;;4988770;28;20078;-93
2022/01/10 02:05:40;;;;;;;0.10;0.10;;;;;;;;;;5002233;28;20427;-92
2022/01/10 02:08:08;;;;;;;0.67;0.50;;;;;;;;;;5003318;28;20027;-92
2022/01/10 02:10:35;;;;;;;0.00;0.00;;;;;;;;;;4989123;28;20042;-91
2022/01/10 02:13:01;;;;;;;0.10;0.10;;;;;;;;;;4986748;28;20026;-92
2022/01/10 02:18:17;;;;;;;0.30;0.30;;;;;;;;;;4988910;28;20093;-91
2022/01/10 02:20:43;;;;;;;0.10;0.10;;;;;;;;;;4986583;28;20037;-93
2022/01/10 02:23:10;;;;;;;0.10;0.10;;;;;;;;;;4988751;28;20064;-93
2022/01/10 02:25:36;;;;;;;0.10;0.10;;;;;;;;;;4990360;28;20039;-92
2022/01/10 02:28:02;;;;;;;0.13;0.13;;;;;;;;;;4988815;28;20029;-92
2022/01/10 02:30:28;;;;;;;0.13;0.13;;;;;;;;;;4989261;28;20073;-92
2022/01/10 02:32:57;;;;;;;0.00;0.00;;;;;;;;;;4988253;28;20041;-92
2022/01/10 02:35:32;;;;;;;0.25;0.25;;;;;;;;;;4987638;28;20034;-92
2022/01/10 02:37:58;;;;;;;0.15;0.15;;;;;;;;;;4987391;28;20038;-93
2022/01/10 02:40:26;;;;;;;0.20;0.20;;;;;;;;;;4989561;28;20026;-92
2022/01/10 02:42:53;;;;;;;0.10;0.10;;;;;;;;;;4990306;28;20129;-93
2022/01/10 02:45:19;;;;;;;0.10;0.10;;;;;;;;;;4988815;28;20042;-93
2022/01/10 02:47:47;;;;;;;0.10;0.10;;;;;;;;;;4986920;28;20085;-93
2022/01/10 02:50:13;;;;;;;0.20;0.20;;;;;;;;;;4986915;28;20113;-94
2022/01/10 02:52:39;;;;;;;0.08;0.08;;;;;;;;;;4988360;28;20092;-93
2022/01/10 02:55:06;;;;;;;0.10;0.10;;;;;;;;;;4986935;28;20031;-93
2022/01/10 02:57:33;;;;;;;0.20;0.20;;;;;;;;;;4987629;28;20038;-93
2022/01/10 02:59:59;;;;;;;0.10;0.10;;;;;;;;;;4984246;28;20046;-92
2022/01/10 03:02:30;;;;;;;0.00;0.00;;;;;;;;;;4987459;28;20514;-92
2022/01/10 03:04:57;;;;;;;0.10;0.10;;;;;;;;;;4985181;28;20065;-92
2022/01/10 03:07:23;;;;;;;0.10;0.10;;;;;;;;;;5000156;28;20034;-92
2022/01/10 03:09:50;;;;;;;0.10;0.10;;;;;;;;;;4987492;28;20042;-94
2022/01/10 03:12:16;;;;;;;;;;;;;;;;;;4987641;28;20022;-93
2022/01/10 03:14:43;;;;;;;0.10;0.10;;;;;;;;;;4985657;28;19929;-94
2022/01/10 03:17:10;;;;;;;0.00;0.00;;;;;;;;;;5011100;28;20046;-94
2022/01/10 03:19:39;;;;;;;0.00;0.00;;;;;;;;;;4988313;28;20404;-94
2022/01/10 03:22:06;;;;;;;0.20;0.20;;;;;;;;;;4986365;28;20072;-93
2022/01/10 03:24:32;;;;;;;0.10;0.10;;;;;;;;;;4989060;28;20049;-94
2022/01/10 03:26:58;;;;;;;0.10;0.10;;;;;;;;;;4987514;28;20780;-95
2022/01/10 03:29:24;;;;;;;0.10;0.10;;;;;;;;;;4987957;28;20031;-92
2022/01/10 03:31:51;;;;;;;0.10;0.10;;;;;;;;;;4983971;28;20034;-94
2022/01/10 03:34:17;;;;;;;0.10;0.10;;;;;;;;;;4985099;28;20033;-93
2022/01/10 03:36:44;;;;;;;0.00;0.00;;;;;;;;;;4986716;28;20022;-94
2022/01/10 03:39:09;;;;;;;;;;;;;;;;;;4985558;28;20031;-94
2022/01/10 03:41:36;;;;;;;0.00;0.00;;;;;;;;;;4982474;28;19940;-94
2022/01/10 03:44:02;;;;;;;0.00;0.00;;;;;;;;;;4988095;28;20054;-93
2022/01/10 03:46:28;;;;;;;0.08;0.08;;;;;;;;;;4990471;28;20265;-93
2022/01/10 03:48:54;;;;;;;0.00;0.00;;;;;;;;;;4989881;28;20064;-93
2022/01/10 03:51:20;;;;;;;0.00;0.00;;;;;;;;;;4982712;28;20034;-95
2022/01/10 03:53:46;;;;;;;0.00;0.00;;;;;;;;;;5008494;28;20033;-93
2022/01/10 03:56:12;;;;;;;0.00;0.00;;;;;;;;;;4985725;28;20104;-94
2022/01/10 03:58:38;;;;;;;0.00;0.00;;;;;;;;;;5010535;28;20525;-94
2022/01/10 04:01:08;;;;;;;0.00;0.00;;;;;;;;;;4986645;28;20022;-95
2022/01/10 04:03:34;;;;;;;0.00;0.00;;;;;;;;;;4986224;28;20061;-93
2022/01/10 04:06:00;;;;;;;0.15;0.15;;;;;;;;;;4988730;28;20184;-94
2022/01/10 04:08:26;;;;;;;0.10;0.10;;;;;;;;;;4991219;28;20026;-94
2022/01/10 04:10:53;;;;;;;0.00;0.00;;;;;;;;;;4991610;28;20031;-93
2022/01/10 04:13:19;;;;;;;0.00;0.00;;;;;;;;;;4990979;28;20841;-94
2022/01/10 04:15:45;;;;;;;0.10;0.10;;;;;;;;;;4993842;28;20402;-94
2022/01/10 04:18:11;;;;;;;0.00;0.00;;;;;;;;;;4991977;28;20034;-93
2022/01/10 04:20:37;;;;;;;0.00;0.00;;;;;;;;;;4993135;28;20036;-94
2022/01/10 04:23:03;;;;;;;0.00;0.00;;;;;;;;;;4988682;28;20035;-94
2022/01/10 04:25:29;;;;;;;0.20;0.20;;;;;;;;;;4991680;28;20102;-93
2022/01/10 04:27:55;;;;;;;0.10;0.10;;;;;;;;;;4990444;28;20745;-94
2022/01/10 04:30:22;;;;;;;0.00;0.00;;;;;;;;;;4991576;28;20032;-94
2022/01/10 04:32:48;;;;;;;0.03;0.03;;;;;;;;;;4990126;28;20033;-93
2022/01/10 04:35:14;;;;;;;0.00;0.00;;;;;;;;;;4991883;28;20034;-92
2022/01/10 04:37:40;;;;;;;0.00;0.00;;;;;;;;;;4991955;28;20033;-91
2022/01/10 04:40:06;;;;;;;0.00;0.00;;;;;;;;;;4989278;28;20018;-91
2022/01/10 04:42:32;;;;;;;0.10;0.10;;;;;;;;;;4990233;28;20034;-91
2022/01/10 04:44:59;;;;;;;0.20;0.20;;;;;;;;;;4991894;28;20050;-92
2022/01/10 04:47:25;;;;;;;0.10;0.10;;;;;;;;;;4989692;28;20062;-92
2022/01/10 04:52:26;;;;;;;0.00;0.00;;;;;;;;;;4988999;28;20120;-92
2022/01/10 04:54:52;;;;;;;0.00;0.00;;;;;;;;;;4990951;28;20027;-93
2022/01/10 04:57:19;;;;;;;0.30;0.30;;;;;;;;;;4992004;28;20129;-94
2022/01/10 04:59:45;;;;;;;0.38;0.38;;;;;;;;;;4992310;28;20053;-93
2022/01/10 05:02:11;;;;;;;0.38;0.38;;;;;;;;;;4989034;28;20027;-94
2022/01/10 05:04:37;;;;;;;0.17;0.17;;;;;;;;;;5005086;28;20124;-94
2022/01/10 05:07:03;;;;;;;0.10;0.10;;;;;;;;;;4990446;28;20023;-93
2022/01/10 05:09:29;;;;;;;0.00;0.00;;;;;;;;;;5005743;28;20046;-94
2022/01/10 05:11:55;;;;;;;0.08;0.08;;;;;;;;;;4990729;28;20556;-93
2022/01/10 05:14:21;;;;;;;0.17;0.17;;;;;;;;;;4992505;28;20034;-92
2022/01/10 05:16:48;;;;;;;0.03;0.03;;;;;;;;;;4992383;28;20034;-93
2022/01/10 05:19:14;;;;;;;0.00;0.00;;;;;;;;;;4993420;28;20097;-93
2022/01/10 05:21:40;;;;;;;0.20;0.20;;;;;;;;;;4990450;28;20280;-93
2022/01/10 05:24:07;;;;;;;0.00;0.00;;;;;;;;;;4990214;28;20518;-91
2022/01/10 05:26:34;;;;;;;0.17;0.17;;;;;;;;;;4988108;28;20027;-92
2022/01/10 05:29:01;;;;;;;0.10;0.10;;;;;;;;;;4989618;28;20042;-91
2022/01/10 05:31:28;;;;;;;0.10;0.10;;;;;;;;;;4988575;28;20033;-93
2022/01/10 05:33:55;;;;;;;0.00;0.00;;;;;;;;;;4988045;28;20034;-93
2022/01/10 05:36:21;;;;;;;0.00;0.00;;;;;;;;;;4987089;28;20509;-91
2022/01/10 05:38:47;;;;;;;0.03;0.03;;;;;;;;;;4987042;28;20042;-91
2022/01/10 05:41:13;;;;;;;0.20;0.20;;;;;;;;;;4986660;28;20561;-88
2022/01/10 05:43:39;;;;;;;0.00;0.00;;;;;;;;;;4987908;28;20317;-92
2022/01/10 05:46:09;;;;;;;0.00;0.00;;;;;;;;;;4989013;28;20411;-88
2022/01/10 05:48:36;;;;;;;0.10;0.10;;;;;;;;;;4987234;28;20026;-91
2022/01/10 05:51:02;;;;;;;0.10;0.10;;;;;;;;;;4983053;28;20045;-89
2022/01/10 05:53:29;;;;;;;1.42;0.28;;;;;;;;;;4985861;28;20591;-90
2022/01/10 05:55:55;;;;;;;0.10;0.10;;;;;;;;;;4990004;28;20038;-88
2022/01/10 05:58:21;;;;;;;0.05;0.05;;;;;;;;;;4980868;28;20038;-90
2022/01/10 06:00:47;;;;;;;0.00;0.00;;;;;;;;;;4985401;28;20037;-91
2022/01/10 06:03:13;;;;;;;0.10;0.10;;;;;;;;;;4988807;28;20670;-91
2022/01/10 06:05:39;;;;;;;0.00;0.00;;;;;;;;;;4984454;28;20309;-89
2022/01/10 06:08:06;;;;;;;0.10;0.10;;;;;;;;;;4986072;28;20019;-91
2022/01/10 06:10:33;;;;;;;0.10;0.10;;;;;;;;;;4989110;28;20030;-92
2022/01/10 06:12:59;;;;;;;0.08;0.08;;;;;;;;;;4990840;28;20898;-91
2022/01/10 06:15:25;;;;;;;0.17;0.17;;;;;;;;;;4986359;28;20033;-88
2022/01/10 06:17:52;;;;;;;0.00;0.00;;;;;;;;;;4990424;28;20049;-90
2022/01/10 06:20:18;;;;;;;0.10;0.10;;;;;;;;;;4990172;28;20443;-92
2022/01/10 06:22:44;;;;;;;0.10;0.10;;;;;;;;;;4988671;28;20797;-91
2022/01/10 06:25:12;;;;;;;0.00;0.00;;;;;;;;;;4984817;28;20038;-91
2022/01/10 06:27:38;;;;;;;0.00;0.00;;;;;;;;;;4986939;28;20031;-90
2022/01/10 06:30:05;;;;;;;0.08;0.08;;;;;;;;;;4986238;28;20041;-90
2022/01/10 06:32:31;;;;;;;0.05;0.05;;;;;;;;;;4985580;28;20054;-91
2022/01/10 06:34:57;;;;;;;0.03;0.03;;;;;;;;;;4988426;28;20030;-96
2022/01/10 06:37:27;;;;;;;0.10;0.10;;;;;;;;;;4990021;28;20026;-94
2022/01/10 06:39:53;;;;;;;0.20;0.20;;;;;;;;;;4988725;28;20066;-92
2022/01/10 06:42:19;;;;;;;0.00;0.00;;;;;;;;;;4988420;28;20113;-92
2022/01/10 06:44:45;;;;;;;0.10;0.10;;;;;;;;;;4988302;28;20458;-92
2022/01/10 06:47:11;;;;;;;0.00;0.00;;;;;;;;;;4978996;28;20043;-89
2022/01/10 06:49:37;;;;;;;0.10;0.10;;;;;;;;;;4989750;28;20037;-90
2022/01/10 06:52:04;;;;;;;0.30;0.30;;;;;;;;;;4986390;28;20030;-91
2022/01/10 06:54:30;;;;;;;0.00;0.00;;;;;;;;;;4983533;28;20521;-90
2022/01/10 06:56:58;;;;;;;1.60;0.33;;;;;;;;;;4988343;28;20483;-90
2022/01/10 06:59:25;;;;;;;0.00;0.00;;;;;;;;;;4987557;28;20513;-90
2022/01/10 07:01:51;;;;;;;;;;;;;;;;;;4989928;28;20521;-90
2022/01/10 07:04:17;;;;;;;0.10;0.10;;;;;;;;;;4971857;28;19958;-90
2022/01/10 07:06:43;;;;;;;0.05;0.05;;;;;;;;;;4983677;28;20030;-90
2022/01/10 07:09:09;;;;;;;0.10;0.10;;;;;;;;;;4988133;28;20128;-89
2022/01/10 07:11:35;;;;;;;0.10;0.10;;;;;;;;;;4985663;28;20105;-91
2022/01/10 07:14:01;;;;;;;0.30;0.30;;;;;;;;;;4989234;28;20671;-89
2022/01/10 07:16:27;;;;;;;0.65;0.65;;;;;;;;;;4989627;28;20034;-90
2022/01/10 07:18:54;;;;;;;0.85;0.60;;;;;;;;;;4975031;28;20038;-88
2022/01/10 07:21:20;;;;;;;0.15;0.15;;;;;;;;;;4980195;28;20136;-90
2022/01/10 07:23:48;;;;;;;0.00;0.00;;;;;;;;;;4987096;28;20027;-91
2022/01/10 07:26:14;;;;;;;0.00;0.00;;;;;;;;;;4990513;28;20046;-94
2022/01/10 07:28:40;;;;;;;0.00;0.00;;;;;;;;;;4975861;28;20031;-95
2022/01/10 07:31:06;;;;;;;0.63;0.63;;;;;;;;;;5005502;28;20094;-96
2022/01/10 07:33:32;;;;;;;0.43;0.43;;;;;;;;;;4997547;28;20035;-96
2022/01/10 07:35:58;;;;;;;0.20;0.20;;;;;;;;;;5000026;28;20033;-95
2022/01/10 07:38:24;;;;;;;0.10;0.10;;;;;;;;;;4989598;28;20030;-94
2022/01/10 07:40:51;;;;;;;0.32;0.30;;;;;;;;;;4970985;28;20027;-94
2022/01/10 07:43:17;;;;;;;0.22;0.22;;;;;;;;;;4985193;28;20038;-93
2022/01/10 07:45:43;;;;;;;1.30;0.60;;;;;;;;;;4989515;28;20100;-93
2022/01/10 07:48:09;;;;;;;0.10;0.10;;;;;;;;;;4990776;28;20073;-93
2022/01/10 07:50:35;;;;;;;0.20;0.20;;;;;;;;;;4987743;28;20278;-94
2022/01/10 07:53:01;;;;;;;1.40;1.27;;;;;;;;;;4987771;28;20035;-95
2022/01/10 07:55:27;;;;;;;3.90;3.20;;;;;;;;;;4992303;28;20503;-95
2022/01/10 07:57:53;;;;;;;28.60;11.10;;;;;;;;;;5005844;28;20209;-96
2022/01/10 08:00:20;;;;;;;4.80;1.70;;;;;;;;;;4987910;28;20147;-96
2022/01/10 08:02:46;;;;;;;0.17;0.17;;;;;;;;;;4991509;28;20119;-95
2022/01/10 08:05:12;;;;;;;0.20;0.20;;;;;;;;;;5001688;28;20038;-96
2022/01/10 08:07:38;;;;;;;0.95;0.60;;;;;;;;;;5001621;28;20033;-96
2022/01/10 08:10:04;;;;;;;3.60;2.00;;;;;;;;;;4989281;28;20042;-94
2022/01/10 08:12:31;;;;;;;0.35;0.35;;;;;;;;;;4985720;28;20128;-91
2022/01/10 08:14:57;;;;;;;1.45;0.90;;;;;;;;;;4995842;28;20030;-95
2022/01/10 08:17:23;;;;;;;2.23;0.33;;;;;;;;;;4988417;28;20073;-89
2022/01/10 08:19:49;;;;;;;0.00;0.00;;;;;;;;;;4976905;28;20153;-89
2022/01/10 08:22:15;;;;;;;0.10;0.10;;;;;;;;;;4985394;28;20092;-88
2022/01/10 08:24:41;;;;;;;2.13;2.03;;;;;;;;;;4984244;28;20469;-88
2022/01/10 08:27:07;;;;;;;5.38;2.95;;;;;;;;;;4979122;28;20035;-89
2022/01/10 08:29:33;;;;;;;18.60;8.60;;;;;;;;;;4985326;28;20558;-89
2022/01/10 08:31:59;;;;;;;3.83;2.40;;;;;;;;;;4986618;28;20125;-90
2022/01/10 08:34:26;;;;;;;1.48;1.35;;;;;;;;;;4982949;28;20038;-88
2022/01/10 08:36:54;;;;;;;0.35;0.35;;;;;;;;;;4983015;28;20069;-88
2022/01/10 08:39:20;;;;;;;10.05;0.52;;;;;;;;;;4984748;28;20630;-87
2022/01/10 08:41:46;;;;;;;0.70;0.70;;;;;;;;;;4982002;28;20030;-88
2022/01/10 08:44:14;;;;;;;0.98;0.98;;;;;;;;;;4982461;28;20050;-89
2022/01/10 08:46:40;;;;;;;1.88;1.40;;;;;;;;;;4980065;28;20403;-88
2022/01/10 08:49:06;;;;;;;0.40;0.40;;;;;;;;;;4986449;28;20030;-88
2022/01/10 08:51:34;;;;;;;1.13;0.93;;;;;;;;;;5001342;28;20413;-87
2022/01/10 08:54:01;;;;;;;0.40;0.40;;;;;;;;;;4989809;28;20042;-87
2022/01/10 08:56:27;;;;;;;0.10;0.10;;;;;;;;;;4986649;28;20086;-87
2022/01/10 08:58:53;;;;;;;0.10;0.10;;;;;;;;;;4988782;28;20130;-88
2022/01/10 09:01:21;;;;;;;0.10;0.10;;;;;;;;;;4988654;28;20518;-88
2022/01/10 09:03:47;;;;;;;0.10;0.10;;;;;;;;;;4988172;28;20573;-88
2022/01/10 09:06:13;;;;;;;0.10;0.10;;;;;;;;;;4981397;28;20567;-88
2022/01/10 09:08:41;;;;;;;1.57;1.10;;;;;;;;;;4984224;28;20039;-87
2022/01/10 09:11:07;;;;;;;0.10;0.10;;;;;;;;;;4986303;28;20534;-88
2022/01/10 09:13:33;;;;;;;1.70;1.60;;;;;;;;;;4986850;28;20070;-88
2022/01/10 09:16:02;;;;;;;0.43;0.43;;;;;;;;;;4988437;28;20034;-87
2022/01/10 09:18:28;;;;;;;0.10;0.10;;;;;;;;;;4985344;28;20042;-87
2022/01/10 09:20:55;;;;;;;0.10;0.10;;;;;;;;;;4988051;28;20133;-87
2022/01/10 09:23:21;;;;;;;0.10;0.10;;;;;;;;;;4987864;28;20411;-88
2022/01/10 09:25:49;;;;;;;0.00;0.00;;;;;;;;;;4988871;28;20728;-88
2022/01/10 09:28:15;;;;;;;0.10;0.10;;;;;;;;;;4989233;28;20033;-89
2022/01/10 09:30:41;;;;;;;0.95;0.45;;;;;;;;;;4988743;28;20487;-89
2022/01/10 09:33:07;;;;;;;0.10;0.10;;;;;;;;;;4987498;28;20065;-88
2022/01/10 09:35:34;;;;;;;0.30;0.30;;;;;;;;;;4987040;28;20026;-88
2022/01/10 09:38:00;;;;;;;1.23;1.13;;;;;;;;;;4988959;28;20066;-87
2022/01/10 09:40:26;;;;;;;0.22;0.22;;;;;;;;;;4982666;28;20058;-88
2022/01/10 09:42:52;;;;;;;0.83;0.27;;;;;;;;;;4984762;28;20026;-87
2022/01/10 09:45:18;;;;;;;0.20;0.20;;;;;;;;;;4987510;28;20165;-87
2022/01/10 09:47:44;;;;;;;2.05;1.10;;;;;;;;;;4983621;28;20412;-88
2022/01/10 09:50:11;;;;;;;0.20;0.20;;;;;;;;;;4985748;28;20030;-87
2022/01/10 09:52:38;;;;;;;0.00;0.00;;;;;;;;;;4988474;28;20029;-89
2022/01/10 09:55:04;;;;;;;0.80;0.30;;;;;;;;;;4984560;28;20107;-88
2022/01/10 09:57:31;;;;;;;1.00;1.00;;;;;;;;;;4987917;28;20505;-88
2022/01/10 09:59:57;;;;;;;0.20;0.20;;;;;;;;;;4986385;28;20499;-87
2022/01/10 10:02:29;;;;;;;0.30;0.20;;;;;;;;;;4984869;28;20276;-88
2022/01/10 10:04:55;;;;;;;0.00;0.00;;;;;;;;;;4988489;28;20046;-88
2022/01/10 10:07:23;;;;;;;0.32;0.20;;;;;;;;;;4986906;28;20403;-89
2022/01/10 10:09:49;;;;;;;0.08;0.08;;;;;;;;;;4984286;28;20034;-87
2022/01/10 10:12:15;;;;;;;0.10;0.10;;;;;;;;;;4987508;28;20034;-88
2022/01/10 10:14:44;;;;;;;0.27;0.27;;;;;;;;;;4983748;28;20038;-89
2022/01/10 10:17:16;;;;;;;0.50;0.50;;;;;;;;;;4984745;28;20456;-88
2022/01/10 10:19:43;;;;;;;0.25;0.25;;;;;;;;;;4988132;28;20034;-88
2022/01/10 10:22:09;;;;;;;0.10;0.10;;;;;;;;;;4983854;28;20093;-88
2022/01/10 10:24:35;;;;;;;0.40;0.40;;;;;;;;;;4985293;28;20038;-88
2022/01/10 10:27:02;;;;;;;0.10;0.10;;;;;;;;;;4987679;28;20030;-88
2022/01/10 10:29:30;;;;;;;0.38;0.38;;;;;;;;;;4970848;28;20474;-88
2022/01/10 10:31:57;;;;;;;0.47;0.35;;;;;;;;;;4988240;28;20030;-88
2022/01/10 10:34:27;;;;;;;0.10;0.10;;;;;;;;;;4983698;28;20038;-88
2022/01/10 10:37:13;;;;;;;0.10;0.10;;;;;;;;;;4984010;28;20543;-87
2022/01/10 10:39:40;;;;;;;0.10;0.10;;;;;;;;;;4977673;28;20475;-89
2022/01/10 10:42:08;;;;;;;0.17;0.17;;;;;;;;;;4976580;28;20411;-87
2022/01/10 10:44:34;;;;;;;0.08;0.08;;;;;;;;;;4986043;28;20054;-88
2022/01/10 10:47:00;;;;;;;1.00;0.40;;;;;;;;;;4987153;28;20121;-87
2022/01/10 10:49:32;;;;;;;5.53;2.88;;;;;;;;;;4986257;28;20420;-89
2022/01/10 10:52:00;;;;;;;1.83;1.73;;;;;;;;;;4984610;28;20081;-89
2022/01/10 10:54:28;;;;;;;0.35;0.35;;;;;;;;;;4985109;28;20116;-89
2022/01/10 10:56:54;;;;;;;0.20;0.20;;;;;;;;;;4985349;28;20034;-87
2022/01/10 10:59:24;;;;;;;0.10;0.10;;;;;;;;;;4985102;28;20297;-88
2022/01/10 11:01:51;;;;;;;0.30;0.30;;;;;;;;;;4986291;28;20038;-87
2022/01/10 11:04:17;;;;;;;0.10;0.10;;;;;;;;;;4978455;28;20423;-89
2022/01/10 11:06:43;;;;;;;0.10;0.10;;;;;;;;;;4985398;28;20026;-87
2022/01/10 11:09:12;;;;;;;0.28;0.28;;;;;;;;;;4983635;28;20030;-88
2022/01/10 11:11:39;;;;;;;0.10;0.10;;;;;;;;;;4986787;28;20026;-89
2022/01/10 11:14:05;;;;;;;0.88;0.70;;;;;;;;;;4986355;28;20408;-89
2022/01/10 11:16:31;;;;;;;0.10;0.10;;;;;;;;;;4985517;28;20073;-87
2022/01/10 11:18:57;;;;;;;0.05;0.05;;;;;;;;;;4984434;28;20037;-88
2022/01/10 11:21:24;;;;;;;0.03;0.03;;;;;;;;;;4985753;28;20046;-88
2022/01/10 11:23:52;;;;;;;0.25;0.25;;;;;;;;;;4985302;28;20042;-88
2022/01/10 11:26:18;;;;;;;0.10;0.10;;;;;;;;;;4985616;28;20057;-88
2022/01/10 11:28:49;;;;;;;0.10;0.10;;;;;;;;;;5001742;28;20116;-87
2022/01/10 11:31:19;;;;;;;0.10;0.10;;;;;;;;;;4984361;28;20026;-89
2022/01/10 11:33:46;;;;;;;0.10;0.10;;;;;;;;;;4982705;28;20030;-89
2022/01/10 11:36:13;;;;;;;0.10;0.10;;;;;;;;;;4979494;28;20031;-88
2022/01/10 11:38:39;;;;;;;0.22;0.22;;;;;;;;;;4983726;28;20049;-87
2022/01/10 11:41:10;;;;;;;0.22;0.22;;;;;;;;;;4970434;28;20035;-88
2022/01/10 11:43:37;;;;;;;0.20;0.20;;;;;;;;;;4985499;28;20065;-89
2022/01/10 11:46:25;;;;;;;0.20;0.10;;;;;;;;;;4982543;28;20049;-87
2022/01/10 11:48:55;;;;;;;0.10;0.10;;;;;;;;;;4982832;28;20052;-86
2022/01/10 11:51:28;;;;;;;0.10;0.10;;;;;;;;;;4983587;28;20057;-88
2022/01/10 11:53:58;;;;;;;0.05;0.05;;;;;;;;;;4986342;28;20053;-88
2022/01/10 11:56:33;;;;;;;0.20;0.20;;;;;;;;;;4984979;28;20034;-88
2022/01/10 11:59:11;;;;;;;0.10;0.10;;;;;;;;;;4967184;28;20030;-88
2022/01/10 12:01:38;;;;;;;0.13;0.13;;;;;;;;;;4986223;28;20049;-88
2022/01/10 12:04:05;;;;;;;0.40;0.40;;;;;;;;;;4982671;28;20555;-87
2022/01/10 12:06:31;;;;;;;0.47;0.47;;;;;;;;;;4984799;28;20117;-88
2022/01/10 12:08:58;;;;;;;0.20;0.20;;;;;;;;;;4984442;28;20019;-88
2022/01/10 12:11:24;;;;;;;0.10;0.10;;;;;;;;;;4983983;28;20162;-89
2022/01/10 12:13:54;;;;;;;0.10;0.10;;;;;;;;;;4966999;28;20077;-88
2022/01/10 12:16:21;;;;;;;0.03;0.03;;;;;;;;;;4976879;28;20030;-89
2022/01/10 12:18:48;;;;;;;0.10;0.10;;;;;;;;;;4983779;28;20037;-89
2022/01/10 12:21:15;;;;;;;0.10;0.10;;;;;;;;;;4978148;28;20065;-87
2022/01/10 12:23:42;;;;;;;1.25;0.63;;;;;;;;;;4980398;28;20030;-87
2022/01/10 12:26:08;;;;;;;2.35;1.98;;;;;;;;;;4998043;28;20043;-88
2022/01/10 12:28:34;;;;;;;0.20;0.20;;;;;;;;;;5003216;28;20057;-88
2022/01/10 12:31:03;;;;;;;0.10;0.10;;;;;;;;;;4982256;28;20037;-86
2022/01/10 12:33:29;;;;;;;0.40;0.40;;;;;;;;;;4988574;28;20058;-87
2022/01/10 12:35:56;;;;;;;0.20;0.20;;;;;;;;;;4987831;28;20113;-88
2022/01/10 12:38:23;;;;;;;0.10;0.10;;;;;;;;;;4987717;28;20042;-89
2022/01/10 12:40:49;;;;;;;0.17;0.17;;;;;;;;;;4984050;28;20324;-87
2022/01/10 12:43:16;;;;;;;0.00;0.00;;;;;;;;;;4987540;28;20030;-87
2022/01/10 12:45:42;;;;;;;0.10;0.10;;;;;;;;;;4984936;28;20039;-87
2022/01/10 12:48:11;;;;;;;2.30;0.40;;;;;;;;;;4987006;28;20554;-87
2022/01/10 12:50:41;;;;;;;0.50;0.35;;;;;;;;;;4987027;28;20034;-88
2022/01/10 12:53:07;;;;;;;0.47;0.47;;;;;;;;;;4988117;28;20077;-89
2022/01/10 12:55:33;;;;;;;0.00;0.00;;;;;;;;;;4988226;28;20843;-87
2022/01/10 12:58:00;;;;;;;0.10;0.10;;;;;;;;;;4987178;28;20057;-88
2022/01/10 13:00:26;;;;;;;0.10;0.10;;;;;;;;;;4987072;28;20034;-88
2022/01/10 13:02:52;;;;;;;0.10;0.10;;;;;;;;;;4987628;28;20034;-89
2022/01/10 13:05:20;;;;;;;0.00;0.00;;;;;;;;;;4987346;28;20053;-88
2022/01/10 13:07:47;;;;;;;0.00;0.00;;;;;;;;;;4989506;28;20270;-87
2022/01/10 13:10:29;;;;;;;0.10;0.10;;;;;;;;;;5002452;28;20034;-87
2022/01/10 13:12:55;;;;;;;5.47;1.00;;;;;;;;;;4987543;28;20123;-89
2022/01/10 13:15:22;;;;;;;0.10;0.10;;;;;;;;;;4987169;28;20035;-87
2022/01/10 13:17:52;;;;;;;2.20;0.77;;;;;;;;;;4985457;28;20404;-89
2022/01/10 13:20:20;;;;;;;0.57;0.45;;;;;;;;;;4987396;28;20046;-87
2022/01/10 13:22:46;;;;;;;0.20;0.20;;;;;;;;;;4987124;28;20046;-88
2022/01/10 13:25:14;;;;;;;3.43;1.20;;;;;;;;;;4986393;28;20189;-88
2022/01/10 13:27:41;;;;;;;0.25;0.25;;;;;;;;;;4976620;28;20046;-88
2022/01/10 13:30:12;;;;;;;0.10;0.10;;;;;;;;;;4976327;28;20542;-88
2022/01/10 13:32:41;;;;;;;0.00;0.00;;;;;;;;;;4984527;28;20027;-88
2022/01/10 13:35:07;;;;;;;0.10;0.10;;;;;;;;;;4985254;28;20034;-89
2022/01/10 13:37:56;;;;;;;0.20;0.20;;;;;;;;;;4987217;28;20030;-88
2022/01/10 13:40:31;;;;;;;0.10;0.10;;;;;;;;;;4977509;28;20578;-89
2022/01/10 13:43:06;;;;;;;1.30;0.98;;;;;;;;;;4985920;28;20042;-88
2022/01/10 13:45:46;;;;;;;0.43;0.30;;;;;;;;;;4986869;28;20495;-88
2022/01/10 13:48:22;;;;;;;0.30;0.15;;;;;;;;;;4985025;28;20543;-87
2022/01/10 13:50:50;;;;;;;0.10;0.10;;;;;;;;;;4973349;28;20574;-87
2022/01/10 13:53:29;;;;;;;0.10;0.10;;;;;;;;;;4981422;28;20038;-87
2022/01/10 13:56:14;;;;;;;0.03;0.03;;;;;;;;;;4981197;28;20037;-87
2022/01/10 13:58:44;;;;;;;1.75;0.98;;;;;;;;;;4978922;28;20039;-87
2022/01/10 14:01:12;;;;;;;0.15;0.15;;;;;;;;;;4996521;28;20086;-87
2022/01/10 14:03:38;;;;;;;0.68;0.68;;;;;;;;;;4979631;28;20755;-88
2022/01/10 14:06:05;;;;;;;0.10;0.10;;;;;;;;;;4990577;28;20100;-88
2022/01/10 14:08:31;;;;;;;0.10;0.10;;;;;;;;;;4979446;28;21436;-87
2022/01/10 14:10:57;;;;;;;0.10;0.10;;;;;;;;;;4977644;28;20053;-90
2022/01/10 14:13:23;;;;;;;0.10;0.10;;;;;;;;;;4985648;28;20027;-89
2022/01/10 14:15:49;;;;;;;0.20;0.20;;;;;;;;;;5001319;28;20054;-90
2022/01/10 14:18:15;;;;;;;0.35;0.17;;;;;;;;;;4986802;28;20033;-88
2022/01/10 14:20:41;;;;;;;0.00;0.00;;;;;;;;;;4986441;28;20641;-88
2022/01/10 14:23:07;;;;;;;2.00;1.83;;;;;;;;;;4983594;28;20110;-92
2022/01/10 14:25:33;;;;;;;0.00;0.00;;;;;;;;;;4994610;28;20058;-90
2022/01/10 14:27:59;;;;;;;0.10;0.10;;;;;;;;;;4995432;28;20041;-90
2022/01/10 14:30:25;;;;;;;0.10;0.10;;;;;;;;;;4984665;28;20022;-89
2022/01/10 14:32:52;;;;;;;0.20;0.20;;;;;;;;;;4978153;28;20063;-91
2022/01/10 14:35:18;;;;;;;0.10;0.10;;;;;;;;;;4979141;28;20041;-88
2022/01/10 14:37:44;;;;;;;0.43;0.43;;;;;;;;;;4975835;28;20034;-89
2022/01/10 14:40:10;;;;;;;0.20;0.20;;;;;;;;;;4970899;28;20026;-89
2022/01/10 14:42:39;;;;;;;0.10;0.10;;;;;;;;;;4981609;28;20034;-89
2022/01/10 14:45:06;;;;;;;0.10;0.10;;;;;;;;;;4982021;28;20050;-88
2022/01/10 14:47:32;;;;;;;4.32;0.30;;;;;;;;;;4981852;28;20027;-88
2022/01/10 14:49:58;;;;;;;0.20;0.20;;;;;;;;;;4979927;28;20034;-88
2022/01/10 14:52:28;;;;;;;0.10;0.10;;;;;;;;;;4981034;28;20034;-87
2022/01/10 14:54:54;;;;;;;0.20;0.20;;;;;;;;;;4996849;28;20533;-88
2022/01/10 14:57:20;;;;;;;0.17;0.17;;;;;;;;;;4980595;28;20049;-88
2022/01/10 14:59:46;;;;;;;0.63;0.53;;;;;;;;;;4997262;28;20769;-89
2022/01/10 15:02:12;;;;;;;0.77;0.65;;;;;;;;;;4984275;28;20554;-88